createdAt,value
2023-05-07T00:00:30.590Z,9.711480
2023-05-07T00:01:30.583Z,9.711535
2023-05-07T00:02:30.633Z,9.711583
2023-05-07T00:03:30.608Z,9.711578
2023-05-07T00:04:30.511Z,9.711484
2023-05-07T00:05:30.461Z,9.711547
2023-05-07T00:06:31.252Z,9.711594
2023-05-07T00:07:30.443Z,9.711570
2023-05-07T00:08:30.432Z,9.711724
2023-05-07T00:09:30.437Z,9.711931
2023-05-07T00:10:30.421Z,9.711963
2023-05-07T00:11:30.416Z,9.711807
2023-05-07T00:12:30.404Z,9.712022
2023-05-07T00:13:30.419Z,9.712210
2023-05-07T00:14:30.386Z,9.711898
2023-05-07T00:15:30.385Z,9.711932
2023-05-07T00:16:30.428Z,9.712190
2023-05-07T00:17:30.521Z,9.712063
2023-05-07T00:18:30.371Z,9.712132
2023-05-07T00:19:30.382Z,9.712077
2023-05-07T00:20:30.350Z,9.711905
2023-05-07T00:28:13.339Z,9.710842
2023-05-07T00:29:13.314Z,9.711427
2023-05-07T00:30:13.430Z,9.711139
2023-05-07T00:31:13.365Z,9.711181
2023-05-07T00:32:13.438Z,9.711500
2023-05-07T00:33:13.359Z,9.711766
2023-05-07T00:34:13.278Z,9.711739
2023-05-07T00:35:13.388Z,9.711653
2023-05-07T00:36:13.273Z,9.711671
2023-05-07T00:37:13.251Z,9.711673
2023-05-07T00:38:13.258Z,9.711590
2023-05-07T00:39:13.928Z,9.711693
2023-05-07T00:40:13.387Z,9.711646
2023-05-07T00:41:13.246Z,9.711619
2023-05-07T00:42:13.224Z,9.711634
2023-05-07T00:43:13.223Z,9.711554
2023-05-07T00:44:13.206Z,9.711584
2023-05-07T00:45:13.195Z,9.711634
2023-05-07T00:46:13.239Z,9.711654
2023-05-07T00:47:13.173Z,9.711655
2023-05-07T00:48:13.203Z,9.711724
2023-05-07T00:49:13.167Z,9.711661
2023-05-07T00:50:13.458Z,9.711679
2023-05-07T00:51:13.167Z,9.711684
2023-05-07T00:52:13.130Z,9.711637
2023-05-07T00:53:13.134Z,9.711649
2023-05-07T00:54:13.112Z,9.711708
2023-05-07T00:55:13.216Z,9.711671
2023-05-07T00:56:13.105Z,9.711674
2023-05-07T00:57:13.110Z,9.711695
2023-05-07T00:58:13.083Z,9.711708
2023-05-07T00:59:13.126Z,9.711675
2023-05-07T01:00:13.391Z,9.711751
2023-05-07T01:01:13.116Z,9.711829
2023-05-07T01:02:13.048Z,9.711808
2023-05-07T01:03:14.063Z,9.711816
2023-05-07T01:04:13.063Z,9.711784
2023-05-07T01:05:13.143Z,9.711819
2023-05-07T01:06:13.027Z,9.711782
2023-05-07T01:07:13.017Z,9.711762
2023-05-07T01:08:13.005Z,9.711741
2023-05-07T01:09:13.014Z,9.711712
2023-05-07T01:10:13.291Z,9.711576
2023-05-07T01:11:13.044Z,9.711513
2023-05-07T01:12:12.979Z,9.711570
2023-05-07T01:13:13.022Z,9.711647
2023-05-07T01:14:12.972Z,9.711731
2023-05-07T01:15:12.960Z,9.711764
2023-05-07T01:16:12.950Z,9.711680
2023-05-07T01:17:14.035Z,9.711798
2023-05-07T01:18:12.969Z,9.711866
2023-05-07T01:19:12.933Z,9.711872
2023-05-07T01:20:13.127Z,9.711853
2023-05-07T01:21:12.989Z,9.711835
2023-05-07T01:22:12.930Z,9.711968
2023-05-07T01:23:12.917Z,9.711911
2023-05-07T01:24:12.924Z,9.711918
2023-05-07T01:25:12.885Z,9.711785
2023-05-07T01:26:12.897Z,9.712628
2023-05-07T01:27:12.870Z,9.712512
2023-05-07T01:28:12.862Z,9.712161
2023-05-07T01:29:12.857Z,9.711940
2023-05-07T01:30:13.044Z,9.711787
2023-05-07T01:31:12.843Z,9.712269
2023-05-07T01:32:12.826Z,9.711952
2023-05-07T01:33:12.816Z,9.712143
2023-05-07T01:34:12.803Z,9.712000
2023-05-07T01:35:12.799Z,9.711783
2023-05-07T01:36:12.792Z,9.711843
2023-05-07T01:37:12.873Z,9.711815
2023-05-07T01:38:12.784Z,9.711836
2023-05-07T01:39:12.769Z,9.711836
2023-05-07T01:40:13.541Z,9.711995
2023-05-07T01:41:12.755Z,9.711842
2023-05-07T01:42:12.749Z,9.711765
2023-05-07T01:43:12.757Z,9.711450
2023-05-07T01:44:12.730Z,9.711724
2023-05-07T01:45:12.741Z,9.711779
2023-05-07T01:46:12.718Z,9.711732
2023-05-07T01:47:12.716Z,9.711726
2023-05-07T01:48:12.713Z,9.711716
2023-05-07T01:49:12.697Z,9.711689
2023-05-07T01:50:13.027Z,9.711752
2023-05-07T01:51:12.668Z,9.711727
2023-05-07T01:52:12.664Z,9.711735
2023-05-07T01:53:12.731Z,9.711670
2023-05-07T01:54:12.643Z,9.711720
2023-05-07T01:55:12.644Z,9.711673
2023-05-07T01:56:12.630Z,9.711695
2023-05-07T01:57:12.612Z,9.711771
2023-05-07T01:58:13.046Z,9.711758
2023-05-07T01:59:12.609Z,9.711754
2023-05-07T02:00:12.857Z,9.711749
2023-05-07T02:01:12.729Z,9.711753
2023-05-07T02:02:12.640Z,9.711740
2023-05-07T02:03:12.682Z,9.711707
2023-05-07T02:04:12.643Z,9.711697
2023-05-07T02:05:12.557Z,9.711758
2023-05-07T02:06:12.548Z,9.711640
2023-05-07T02:07:12.538Z,9.711614
2023-05-07T02:08:12.558Z,9.711592
2023-05-07T02:09:12.609Z,9.711662
2023-05-07T02:10:12.755Z,9.711705
2023-05-07T02:11:13.475Z,9.711657
2023-05-07T02:12:12.505Z,9.711602
2023-05-07T02:13:12.526Z,9.711638
2023-05-07T02:14:12.508Z,9.711597
2023-05-07T02:15:12.488Z,9.711701
2023-05-07T02:16:12.505Z,9.711708
2023-05-07T02:17:12.471Z,9.711642
2023-05-07T02:18:12.469Z,9.711713
2023-05-07T02:19:12.456Z,9.711736
2023-05-07T02:20:12.501Z,9.711679
2023-05-07T02:21:12.483Z,9.711626
2023-05-07T02:22:12.444Z,9.711711
2023-05-07T02:23:12.423Z,9.711749
2023-05-07T02:24:12.417Z,9.711668
2023-05-07T02:25:12.591Z,9.711753
2023-05-07T02:26:12.399Z,9.711656
2023-05-07T02:27:13.463Z,9.711629
2023-05-07T02:28:12.444Z,9.711732
2023-05-07T02:29:12.373Z,9.711718
2023-05-07T02:30:13.055Z,9.711747
2023-05-07T02:31:12.360Z,9.711772
2023-05-07T02:32:12.437Z,9.711706
2023-05-07T02:33:12.366Z,9.711708
2023-05-07T02:34:12.349Z,9.711742
2023-05-07T02:35:12.967Z,9.711670
2023-05-07T02:36:13.050Z,9.711809
2023-05-07T02:37:12.306Z,9.711738
2023-05-07T02:38:12.322Z,9.711880
2023-05-07T02:39:12.298Z,9.711790
2023-05-07T02:40:12.602Z,9.711876
2023-05-07T02:41:12.367Z,9.711884
2023-05-07T02:42:12.285Z,9.711572
2023-05-07T02:43:13.043Z,9.711618
2023-05-07T02:44:12.255Z,9.711732
2023-05-07T02:45:12.264Z,9.711880
2023-05-07T02:46:13.095Z,9.711930
2023-05-07T02:47:12.243Z,9.711803
2023-05-07T02:48:12.229Z,9.711786
2023-05-07T02:49:12.222Z,9.711836
2023-05-07T02:50:12.439Z,9.711721
2023-05-07T02:51:12.203Z,9.711693
2023-05-07T02:52:12.205Z,9.711750
2023-05-07T02:53:12.180Z,9.711720
2023-05-07T02:54:12.186Z,9.711814
2023-05-07T02:55:12.202Z,9.711806
2023-05-07T02:56:12.169Z,9.711720
2023-05-07T02:57:12.226Z,9.711808
2023-05-07T02:58:12.137Z,9.711812
2023-05-07T02:59:12.121Z,9.711833
2023-05-07T03:00:13.174Z,9.711862
2023-05-07T03:01:12.185Z,9.711851
2023-05-07T03:02:12.128Z,9.711818
2023-05-07T03:03:12.164Z,9.711846
2023-05-07T03:04:12.150Z,9.711782
2023-05-07T03:05:12.105Z,9.711757
2023-05-07T03:06:12.074Z,9.711591
2023-05-07T03:07:12.068Z,9.711543
2023-05-07T03:08:12.057Z,9.711845
2023-05-07T03:09:12.057Z,9.711821
2023-05-07T03:10:12.305Z,9.711746
2023-05-07T03:11:12.053Z,9.711651
2023-05-07T03:12:12.033Z,9.711609
2023-05-07T03:13:12.170Z,9.711662
2023-05-07T03:14:12.026Z,9.711652
2023-05-07T03:15:12.022Z,9.711598
2023-05-07T03:16:12.019Z,9.711632
2023-05-07T03:17:11.990Z,9.711632
2023-05-07T03:18:12.084Z,9.711598
2023-05-07T03:19:11.992Z,9.711618
2023-05-07T03:20:13.225Z,9.711699
2023-05-07T03:21:11.957Z,9.711630
2023-05-07T03:22:11.949Z,9.711658
2023-05-07T03:23:11.959Z,9.711686
2023-05-07T03:24:11.935Z,9.711649
2023-05-07T03:25:11.937Z,9.711617
2023-05-07T03:26:12.499Z,9.711634
2023-05-07T03:27:11.925Z,9.711628
2023-05-07T03:28:11.908Z,9.711616
2023-05-07T03:29:11.983Z,9.711621
2023-05-07T03:30:12.045Z,9.711611
2023-05-07T03:31:12.546Z,9.711617
2023-05-07T03:32:11.997Z,9.711638
2023-05-07T03:33:11.895Z,9.711687
2023-05-07T03:34:11.858Z,9.711671
2023-05-07T03:35:11.856Z,9.711676
2023-05-07T03:36:11.843Z,9.711671
2023-05-07T03:37:11.830Z,9.711645
2023-05-07T03:38:11.811Z,9.711634
2023-05-07T03:39:11.813Z,9.711662
2023-05-07T03:40:12.285Z,9.711657
2023-05-07T03:41:11.841Z,9.711654
2023-05-07T03:42:11.789Z,9.711656
2023-05-07T03:43:11.784Z,9.711634
2023-05-07T03:44:11.775Z,9.711678
2023-05-07T03:45:11.768Z,9.711660
2023-05-07T03:46:11.805Z,9.711682
2023-05-07T03:47:11.770Z,9.711663
2023-05-07T03:48:11.815Z,9.711629
2023-05-07T03:49:11.738Z,9.711628
2023-05-07T03:50:11.979Z,9.711666
2023-05-07T03:51:11.716Z,9.711642
2023-05-07T03:52:11.888Z,9.711710
2023-05-07T03:53:11.718Z,9.711639
2023-05-07T03:54:11.692Z,9.711612
2023-05-07T03:55:11.697Z,9.711673
2023-05-07T03:56:11.671Z,9.711581
2023-05-07T03:57:11.692Z,9.711612
2023-05-07T03:58:11.681Z,9.711516
2023-05-07T03:59:11.660Z,9.711687
2023-05-07T04:00:11.879Z,9.711604
2023-05-07T04:01:11.641Z,9.711618
2023-05-07T04:02:11.656Z,9.711661
2023-05-07T04:03:11.745Z,9.711529
2023-05-07T04:04:11.699Z,9.711512
2023-05-07T04:05:11.614Z,9.711565
2023-05-07T04:06:11.611Z,9.711619
2023-05-07T04:07:11.597Z,9.711518
2023-05-07T04:08:11.593Z,9.711597
2023-05-07T04:09:11.601Z,9.711632
2023-05-07T04:10:11.781Z,9.711728
2023-05-07T04:11:11.585Z,9.711626
2023-05-07T04:12:11.567Z,9.711677
2023-05-07T04:13:11.589Z,9.711695
2023-05-07T04:14:11.552Z,9.711734
2023-05-07T04:15:11.534Z,9.711679
2023-05-07T04:16:11.634Z,9.711637
2023-05-07T04:17:11.518Z,9.711564
2023-05-07T04:18:11.520Z,9.711575
2023-05-07T04:19:11.505Z,9.711542
2023-05-07T04:20:11.747Z,9.711573
2023-05-07T04:21:11.543Z,9.711646
2023-05-07T04:22:12.484Z,9.711633
2023-05-07T04:23:11.987Z,9.711618
2023-05-07T04:24:11.467Z,9.711621
2023-05-07T04:25:11.476Z,9.711578
2023-05-07T04:26:11.461Z,9.711645
2023-05-07T04:27:11.434Z,9.711622
2023-05-07T04:28:11.430Z,9.711649
2023-05-07T04:29:11.431Z,9.711616
2023-05-07T04:30:11.727Z,9.711600
2023-05-07T04:31:11.436Z,9.711580
2023-05-07T04:32:11.504Z,9.711609
2023-05-07T04:33:11.436Z,9.711656
2023-05-07T04:34:11.397Z,9.711633
2023-05-07T04:35:11.383Z,9.711621
2023-05-07T04:36:11.396Z,9.711587
2023-05-07T04:37:11.414Z,9.711592
2023-05-07T04:38:11.369Z,9.711587
2023-05-07T04:39:11.356Z,9.711606
2023-05-07T04:40:11.553Z,9.711596
2023-05-07T04:41:11.326Z,9.711613
2023-05-07T04:42:11.372Z,9.711647
2023-05-07T04:43:11.371Z,9.711617
2023-05-07T04:44:11.351Z,9.711579
2023-05-07T04:45:11.314Z,9.711628
2023-05-07T04:46:11.327Z,9.711543
2023-05-07T04:47:11.305Z,9.711652
2023-05-07T04:48:11.308Z,9.711626
2023-05-07T04:49:11.435Z,9.711660
2023-05-07T04:50:11.469Z,9.711675
2023-05-07T04:51:11.254Z,9.711671
2023-05-07T04:52:11.253Z,9.711630
2023-05-07T04:53:11.258Z,9.711785
2023-05-07T04:54:11.249Z,9.711658
2023-05-07T04:55:11.220Z,9.711779
2023-05-07T04:56:11.216Z,9.711784
2023-05-07T04:57:11.246Z,9.711775
2023-05-07T04:58:11.214Z,9.711658
2023-05-07T04:59:11.194Z,9.711578
2023-05-07T05:00:11.339Z,9.711728
2023-05-07T05:01:11.222Z,9.711654
2023-05-07T05:02:11.188Z,9.711503
2023-05-07T05:03:11.235Z,9.711415
2023-05-07T05:04:11.302Z,9.711548
2023-05-07T05:05:11.189Z,9.711739
2023-05-07T05:06:11.158Z,9.711790
2023-05-07T05:07:11.130Z,9.711662
2023-05-07T05:08:11.130Z,9.711677
2023-05-07T05:09:11.123Z,9.711569
2023-05-07T05:10:11.370Z,9.711632
2023-05-07T05:11:11.117Z,9.711679
2023-05-07T05:12:11.108Z,9.711676
2023-05-07T05:13:11.106Z,9.711576
2023-05-07T05:14:11.092Z,9.711546
2023-05-07T05:15:11.081Z,9.711630
2023-05-07T05:16:11.248Z,9.711622
2023-05-07T05:17:11.067Z,9.711717
2023-05-07T05:18:11.051Z,9.711639
2023-05-07T05:19:11.064Z,9.711720
2023-05-07T05:20:11.192Z,9.711643
2023-05-07T05:21:11.110Z,9.711637
2023-05-07T05:22:11.046Z,9.711684
2023-05-07T05:23:11.016Z,9.711700
2023-05-07T05:24:11.013Z,9.711652
2023-05-07T05:25:10.995Z,9.711744
2023-05-07T05:26:10.986Z,9.711865
2023-05-07T05:27:11.013Z,9.711633
2023-05-07T05:28:10.977Z,9.711583
2023-05-07T05:29:11.029Z,9.711658
2023-05-07T05:30:11.141Z,9.711703
2023-05-07T05:31:10.970Z,9.711700
2023-05-07T05:32:10.941Z,9.711896
2023-05-07T05:33:11.029Z,9.711861
2023-05-07T05:34:10.940Z,9.711717
2023-05-07T05:35:10.914Z,9.711709
2023-05-07T05:36:10.909Z,9.711686
2023-05-07T05:37:10.923Z,9.711664
2023-05-07T05:38:10.895Z,9.711803
2023-05-07T05:39:11.893Z,9.711850
2023-05-07T05:40:11.780Z,9.711918
2023-05-07T05:41:10.897Z,9.711893
2023-05-07T05:42:10.869Z,9.711842
2023-05-07T05:43:10.867Z,9.711827
2023-05-07T05:44:10.858Z,9.711848
2023-05-07T05:45:10.846Z,9.711990
2023-05-07T05:46:10.881Z,9.711935
2023-05-07T05:47:10.830Z,9.711814
2023-05-07T05:48:10.886Z,9.711642
2023-05-07T05:49:10.804Z,9.711619
2023-05-07T05:50:11.024Z,9.711609
2023-05-07T05:51:10.807Z,9.711749
2023-05-07T05:52:11.521Z,9.712240
2023-05-07T05:53:11.796Z,9.711969
2023-05-07T05:54:10.785Z,9.712104
2023-05-07T05:55:11.527Z,9.712758
2023-05-07T05:56:10.769Z,9.712641
2023-05-07T05:57:10.745Z,9.712049
2023-05-07T05:58:10.737Z,9.711902
2023-05-07T05:59:10.786Z,9.712034
2023-05-07T06:00:10.961Z,9.712314
2023-05-07T06:01:10.728Z,9.712369
2023-05-07T06:02:10.743Z,9.711949
2023-05-07T06:03:10.751Z,9.712144
2023-05-07T06:04:10.691Z,9.712196
2023-05-07T06:05:10.733Z,9.712162
2023-05-07T06:06:10.668Z,9.711706
2023-05-07T06:07:11.677Z,9.711882
2023-05-07T06:08:10.686Z,9.711876
2023-05-07T06:09:10.671Z,9.711999
2023-05-07T06:10:11.033Z,9.711926
2023-05-07T06:11:10.645Z,9.711705
2023-05-07T06:12:10.633Z,9.711739
2023-05-07T06:13:10.650Z,9.712082
2023-05-07T06:14:10.630Z,9.711970
2023-05-07T06:15:10.620Z,9.711927
2023-05-07T06:16:11.627Z,9.711939
2023-05-07T06:17:10.605Z,9.712038
2023-05-07T06:18:10.637Z,9.712305
2023-05-07T06:19:10.589Z,9.711908
2023-05-07T06:20:10.920Z,9.711915
2023-05-07T06:21:11.617Z,9.711995
2023-05-07T06:22:11.101Z,9.711911
2023-05-07T06:23:10.625Z,9.711797
2023-05-07T06:24:10.554Z,9.711689
2023-05-07T06:25:11.597Z,9.711662
2023-05-07T06:26:11.521Z,9.711879
2023-05-07T06:27:10.521Z,9.711872
2023-05-07T06:28:10.513Z,9.712033
2023-05-07T06:29:11.022Z,9.711927
2023-05-07T06:30:11.223Z,9.711960
2023-05-07T06:31:10.516Z,9.711885
2023-05-07T06:32:10.585Z,9.711818
2023-05-07T06:33:10.520Z,9.711852
2023-05-07T06:34:10.472Z,9.711766
2023-05-07T06:35:10.474Z,9.712000
2023-05-07T06:36:10.991Z,9.711887
2023-05-07T06:37:10.452Z,9.711776
2023-05-07T06:38:10.429Z,9.711657
2023-05-07T06:39:10.423Z,9.711610
2023-05-07T06:40:10.599Z,9.711652
2023-05-07T06:41:10.593Z,9.711576
2023-05-07T06:42:10.406Z,9.711606
2023-05-07T06:43:10.383Z,9.711631
2023-05-07T06:44:10.378Z,9.711785
2023-05-07T06:45:10.369Z,9.711755
2023-05-07T06:46:10.432Z,9.711738
2023-05-07T06:47:10.353Z,9.711664
2023-05-07T06:48:10.343Z,9.711560
2023-05-07T06:49:10.382Z,9.711575
2023-05-07T06:50:10.478Z,9.711670
2023-05-07T06:51:10.336Z,9.711693
2023-05-07T06:52:10.313Z,9.711667
2023-05-07T06:53:10.301Z,9.711689
2023-05-07T06:54:10.302Z,9.711654
2023-05-07T06:55:10.303Z,9.711620
2023-05-07T06:56:10.300Z,9.711604
2023-05-07T06:57:10.268Z,9.711543
2023-05-07T06:58:10.259Z,9.711658
2023-05-07T06:59:10.261Z,9.711763
2023-05-07T07:00:10.624Z,9.711800
2023-05-07T07:01:10.275Z,9.711797
2023-05-07T07:02:10.221Z,9.711728
2023-05-07T07:03:10.261Z,9.711697
2023-05-07T07:04:10.254Z,9.711772
2023-05-07T07:05:10.282Z,9.711742
2023-05-07T07:06:10.217Z,9.711633
2023-05-07T07:07:10.188Z,9.711359
2023-05-07T07:08:10.180Z,9.711655
2023-05-07T07:09:10.188Z,9.711905
2023-05-07T07:10:10.365Z,9.711967
2023-05-07T07:11:10.161Z,9.711828
2023-05-07T07:12:10.145Z,9.711759
2023-05-07T07:13:10.260Z,9.711732
2023-05-07T07:14:10.149Z,9.711564
2023-05-07T07:15:10.139Z,9.711678
2023-05-07T07:16:10.184Z,9.711871
2023-05-07T07:17:10.109Z,9.712008
2023-05-07T07:18:10.157Z,9.712057
2023-05-07T07:19:10.105Z,9.711955
2023-05-07T07:20:11.787Z,9.712122
2023-05-07T07:21:11.076Z,9.712177
2023-05-07T07:22:10.091Z,9.712205
2023-05-07T07:23:10.059Z,9.711946
2023-05-07T07:24:10.055Z,9.711817
2023-05-07T07:25:10.930Z,9.711886
2023-05-07T07:26:11.044Z,9.711877
2023-05-07T07:27:11.032Z,9.711718
2023-05-07T07:28:10.031Z,9.711657
2023-05-07T07:29:11.149Z,9.711679
2023-05-07T07:30:10.177Z,9.711668
2023-05-07T07:31:10.054Z,9.711677
2023-05-07T07:32:09.995Z,9.711714
2023-05-07T07:33:10.091Z,9.711714
2023-05-07T07:34:09.991Z,9.711721
2023-05-07T07:35:09.970Z,9.711836
2023-05-07T07:36:09.965Z,9.711784
2023-05-07T07:37:09.948Z,9.711781
2023-05-07T07:38:09.949Z,9.711815
2023-05-07T07:39:09.945Z,9.711863
2023-05-07T07:40:10.374Z,9.711801
2023-05-07T07:41:09.917Z,9.711723
2023-05-07T07:42:09.918Z,9.711775
2023-05-07T07:43:10.535Z,9.711813
2023-05-07T07:44:09.936Z,9.711754
2023-05-07T07:45:09.990Z,9.711802
2023-05-07T07:46:09.886Z,9.711807
2023-05-07T07:47:09.957Z,9.711699
2023-05-07T07:48:09.972Z,9.711786
2023-05-07T07:49:09.868Z,9.711842
2023-05-07T07:50:10.073Z,9.711777
2023-05-07T07:51:09.879Z,9.711786
2023-05-07T07:52:09.857Z,9.711822
2023-05-07T07:53:09.826Z,9.711825
2023-05-07T07:54:09.861Z,9.711881
2023-05-07T07:55:10.544Z,9.711790
2023-05-07T07:56:09.807Z,9.711785
2023-05-07T07:57:09.794Z,9.711773
2023-05-07T07:58:09.805Z,9.711763
2023-05-07T07:59:09.825Z,9.711765
2023-05-07T08:00:09.915Z,9.711729
2023-05-07T08:01:09.894Z,9.711765
2023-05-07T08:02:09.826Z,9.711698
2023-05-07T08:03:09.905Z,9.711723
2023-05-07T08:04:09.838Z,9.711835
2023-05-07T08:05:10.543Z,9.711751
2023-05-07T08:06:09.745Z,9.711746
2023-05-07T08:07:10.556Z,9.711692
2023-05-07T08:08:09.703Z,9.711685
2023-05-07T08:09:09.693Z,9.711726
2023-05-07T08:10:10.897Z,9.711775
2023-05-07T08:11:09.698Z,9.711726
2023-05-07T08:12:10.554Z,9.711550
2023-05-07T08:13:09.774Z,9.711610
2023-05-07T08:14:09.669Z,9.711675
2023-05-07T08:15:09.651Z,9.711691
2023-05-07T08:16:10.632Z,9.711680
2023-05-07T08:17:09.724Z,9.711757
2023-05-07T08:18:09.682Z,9.711776
2023-05-07T08:19:09.615Z,9.711772
2023-05-07T08:20:10.424Z,9.711770
2023-05-07T08:21:09.601Z,9.711758
2023-05-07T08:22:09.596Z,9.711782
2023-05-07T08:23:09.644Z,9.711659
2023-05-07T08:24:10.550Z,9.711531
2023-05-07T08:25:09.569Z,9.711598
2023-05-07T08:26:09.566Z,9.711683
2023-05-07T08:27:09.558Z,9.711675
2023-05-07T08:28:10.144Z,9.711800
2023-05-07T08:29:10.585Z,9.711723
2023-05-07T08:30:09.662Z,9.711540
2023-05-07T08:31:09.539Z,9.711564
2023-05-07T08:32:09.524Z,9.711632
2023-05-07T08:33:09.640Z,9.711627
2023-05-07T08:34:10.178Z,9.711630
2023-05-07T08:35:10.487Z,9.711600
2023-05-07T08:36:09.527Z,9.711684
2023-05-07T08:37:10.481Z,9.711704
2023-05-07T08:38:11.154Z,9.711707
2023-05-07T08:39:09.469Z,9.711766
2023-05-07T08:40:12.259Z,9.711370
2023-05-07T08:41:11.462Z,9.711794
2023-05-07T08:42:09.450Z,9.712116
2023-05-07T08:43:09.438Z,9.712078
2023-05-07T08:44:09.423Z,9.711905
2023-05-07T08:45:09.421Z,9.711827
2023-05-07T08:46:10.343Z,9.711644
2023-05-07T08:47:10.394Z,9.711694
2023-05-07T08:48:09.420Z,9.711648
2023-05-07T08:49:09.511Z,9.711559
2023-05-07T08:50:09.483Z,9.711741
2023-05-07T08:51:09.361Z,9.711823
2023-05-07T08:52:10.126Z,9.711719
2023-05-07T08:53:10.350Z,9.711825
2023-05-07T08:54:09.340Z,9.711887
2023-05-07T08:55:09.429Z,9.711645
2023-05-07T08:56:09.345Z,9.711809
2023-05-07T08:57:09.314Z,9.711767
2023-05-07T08:58:09.314Z,9.712106
2023-05-07T08:59:09.297Z,9.712046
2023-05-07T09:00:09.378Z,9.712055
2023-05-07T09:07:17.191Z,9.711393
2023-05-07T09:08:17.272Z,9.711346
2023-05-07T09:09:17.165Z,9.711394
2023-05-07T09:10:17.171Z,9.711639
2023-05-07T09:11:17.183Z,9.711886
2023-05-07T09:12:17.154Z,9.711646
2023-05-07T09:13:17.256Z,9.711739
2023-05-07T09:14:19.061Z,9.711751
2023-05-07T09:15:17.133Z,9.711598
2023-05-07T09:16:17.160Z,9.711677
2023-05-07T09:17:17.104Z,9.711638
2023-05-07T09:18:17.146Z,9.711685
2023-05-07T09:19:17.089Z,9.711656
2023-05-07T09:20:17.167Z,9.711586
2023-05-07T09:21:17.074Z,9.711717
2023-05-07T09:22:17.061Z,9.711475
2023-05-07T09:23:17.066Z,9.711481
2023-05-07T09:24:17.045Z,9.711732
2023-05-07T09:25:17.071Z,9.711727
2023-05-07T09:26:17.031Z,9.711778
2023-05-07T09:27:17.019Z,9.711781
2023-05-07T09:28:19.007Z,9.711785
2023-05-07T09:29:19.485Z,9.711740
2023-05-07T09:30:17.054Z,9.711700
2023-05-07T09:31:18.229Z,9.711684
2023-05-07T09:32:17.032Z,9.711693
2023-05-07T09:33:17.489Z,9.711661
2023-05-07T09:34:16.977Z,9.711655
2023-05-07T09:35:17.015Z,9.711637
2023-05-07T09:36:17.053Z,9.711614
2023-05-07T09:37:16.948Z,9.711619
2023-05-07T09:38:16.935Z,9.711630
2023-05-07T09:39:16.947Z,9.711634
2023-05-07T09:40:16.926Z,9.711628
2023-05-07T09:41:18.619Z,9.711658
2023-05-07T09:42:16.942Z,9.711698
2023-05-07T09:43:17.104Z,9.711730
2023-05-07T09:44:16.907Z,9.711753
2023-05-07T09:45:17.596Z,9.711667
2023-05-07T09:46:16.913Z,9.711673
2023-05-07T09:47:16.867Z,9.711664
2023-05-07T09:48:16.891Z,9.711670
2023-05-07T09:49:17.780Z,9.711747
2023-05-07T09:50:17.631Z,9.711754
2023-05-07T09:51:16.875Z,9.711702
2023-05-07T09:52:17.053Z,9.711669
2023-05-07T09:53:17.517Z,9.711680
2023-05-07T09:54:16.909Z,9.711596
2023-05-07T09:55:17.529Z,9.711522
2023-05-07T09:56:16.810Z,9.711496
2023-05-07T09:57:16.810Z,9.711501
2023-05-07T09:58:16.796Z,9.711515
2023-05-07T09:59:21.504Z,9.711539
2023-05-07T10:00:16.855Z,9.711656
2023-05-07T10:01:17.599Z,9.711655
2023-05-07T10:02:16.831Z,9.711646
2023-05-07T10:03:16.818Z,9.711655
2023-05-07T10:04:16.759Z,9.711537
2023-05-07T10:05:18.608Z,9.711598
2023-05-07T10:06:16.727Z,9.711557
2023-05-07T10:07:17.494Z,9.711605
2023-05-07T10:08:16.777Z,9.711551
2023-05-07T10:09:17.376Z,9.711577
2023-05-07T10:10:16.740Z,9.711670
2023-05-07T10:11:16.699Z,9.711624
2023-05-07T10:12:16.748Z,9.711584
2023-05-07T10:13:16.692Z,9.711605
2023-05-07T10:14:16.675Z,9.711707
2023-05-07T10:15:16.656Z,9.711634
2023-05-07T10:16:16.664Z,9.711597
2023-05-07T10:17:17.658Z,9.711679
2023-05-07T10:18:16.727Z,9.711601
2023-05-07T10:19:17.623Z,9.711594
2023-05-07T10:20:16.682Z,9.711596
2023-05-07T10:21:21.688Z,9.711580
2023-05-07T10:22:22.498Z,9.711546
2023-05-07T10:23:19.319Z,9.711640
2023-05-07T10:24:16.594Z,9.711567
2023-05-07T10:25:16.583Z,9.711444
2023-05-07T10:26:16.584Z,9.711478
2023-05-07T10:27:16.575Z,9.711510
2023-05-07T10:28:18.088Z,9.711626
2023-05-07T10:29:16.555Z,9.711757
2023-05-07T10:30:16.554Z,9.711782
2023-05-07T10:31:16.540Z,9.711727
2023-05-07T10:32:16.557Z,9.711788
2023-05-07T10:33:16.677Z,9.711662
2023-05-07T10:34:16.519Z,9.711585
2023-05-07T10:35:17.090Z,9.711638
2023-05-07T10:36:16.502Z,9.711683
2023-05-07T10:37:16.522Z,9.711643
2023-05-07T10:38:19.107Z,9.711698
2023-05-07T10:40:16.478Z,9.711695
2023-05-07T10:41:17.034Z,9.711630
2023-05-07T10:42:16.469Z,9.711606
2023-05-07T10:43:18.019Z,9.711604
2023-05-07T10:44:16.439Z,9.711566
2023-05-07T10:45:16.448Z,9.711556
2023-05-07T10:46:16.505Z,9.711630
2023-05-07T10:47:18.098Z,9.711615
2023-05-07T10:48:29.745Z,9.711629
2023-05-07T10:49:18.405Z,9.711677
2023-05-07T10:50:16.426Z,9.711631
2023-05-07T10:51:20.036Z,9.711598
2023-05-07T10:52:17.131Z,9.711797
2023-05-07T10:53:16.369Z,9.711946
2023-05-07T10:54:18.147Z,9.711953
2023-05-07T10:55:16.706Z,9.712364
2023-05-07T10:56:16.343Z,9.712385
2023-05-07T10:57:18.066Z,9.712155
2023-05-07T10:58:30.120Z,9.712023
2023-05-07T10:59:18.325Z,9.712279
2023-05-07T11:00:18.431Z,9.712571
2023-05-07T11:01:18.374Z,9.712090
2023-05-07T11:02:16.372Z,9.711785
2023-05-07T11:03:16.312Z,9.711985
2023-05-07T11:04:16.304Z,9.711561
2023-05-07T11:05:16.325Z,9.712125
2023-05-07T11:06:16.285Z,9.712234
2023-05-07T11:07:16.281Z,9.711726
2023-05-07T11:08:16.238Z,9.710998
2023-05-07T11:09:16.247Z,9.711508
2023-05-07T11:10:16.239Z,9.711384
2023-05-07T11:11:16.242Z,9.711670
2023-05-07T11:12:16.240Z,9.711529
2023-05-07T11:13:19.079Z,9.711524
2023-05-07T11:14:16.201Z,9.710195
2023-05-07T11:15:16.186Z,9.710603
2023-05-07T11:16:18.114Z,9.711166
2023-05-07T11:17:16.175Z,9.711415
2023-05-07T11:18:16.169Z,9.711273
2023-05-07T11:19:16.182Z,9.711384
2023-05-07T11:20:16.160Z,9.711252
2023-05-07T11:21:16.142Z,9.711217
2023-05-07T11:22:16.164Z,9.711326
2023-05-07T11:23:16.126Z,9.711732
2023-05-07T11:24:16.116Z,9.711925
2023-05-07T11:25:17.612Z,9.711629
2023-05-07T11:26:17.611Z,9.711135
2023-05-07T11:27:16.137Z,9.711189
2023-05-07T11:28:16.099Z,9.710957
2023-05-07T11:29:16.090Z,9.711523
2023-05-07T11:30:16.068Z,9.711432
2023-05-07T11:31:16.071Z,9.711200
2023-05-07T11:32:16.057Z,9.711484
2023-05-07T11:33:16.084Z,9.711427
2023-05-07T11:34:17.061Z,9.711431
2023-05-07T11:35:16.035Z,9.711449
2023-05-07T11:36:16.007Z,9.711365
2023-05-07T11:37:17.623Z,9.711496
2023-05-07T11:38:16.630Z,9.711541
2023-05-07T11:39:15.989Z,9.711320
2023-05-07T11:40:16.983Z,9.711541
2023-05-07T11:41:15.970Z,9.711439
2023-05-07T11:42:15.975Z,9.711519
2023-05-07T11:43:16.029Z,9.711505
2023-05-07T11:44:15.957Z,9.711591
2023-05-07T11:45:15.945Z,9.711537
2023-05-07T11:46:15.947Z,9.711575
2023-05-07T11:47:15.919Z,9.711631
2023-05-07T11:48:15.929Z,9.711612
2023-05-07T11:49:18.621Z,9.711592
2023-05-07T11:50:15.917Z,9.711557
2023-05-07T11:51:15.924Z,9.711626
2023-05-07T11:52:15.902Z,9.711668
2023-05-07T11:53:15.885Z,9.711569
2023-05-07T11:54:15.900Z,9.711610
2023-05-07T11:55:16.540Z,9.711614
2023-05-07T11:56:15.916Z,9.711645
2023-05-07T11:57:18.623Z,9.711608
2023-05-07T11:59:15.827Z,9.711605